createdAt,value
2017-10-21T00:00:55.113Z,97.31
2017-10-21T00:03:23.550Z,97.33
2017-10-21T00:05:52.026Z,97.13
2017-10-21T00:08:20.469Z,97.41
2017-10-21T00:10:48.933Z,97.31
2017-10-21T00:13:17.377Z,97.27
2017-10-21T00:15:46.614Z,97.31
2017-10-21T00:18:15.065Z,96.88
2017-10-21T00:20:44.804Z,97.04
2017-10-21T00:23:13.274Z,96.68
2017-10-21T00:25:41.717Z,96.23
2017-10-21T00:28:10.946Z,96.94
2017-10-21T00:30:40.182Z,97.01
2017-10-21T00:33:08.650Z,97.52
2017-10-21T00:35:37.148Z,96.93
2017-10-21T00:38:05.630Z,96.68
2017-10-21T00:40:34.101Z,96.98
2017-10-21T00:43:02.569Z,97.07
2017-10-21T00:45:31.016Z,96.92
2017-10-21T00:47:59.548Z,97.44
2017-10-21T00:50:27.984Z,96.90
2017-10-21T00:52:56.516Z,96.55
2017-10-21T00:55:24.976Z,96.62
2017-10-21T00:57:53.412Z,96.53
2017-10-21T01:00:21.873Z,96.83
2017-10-21T01:02:50.352Z,97.08
2017-10-21T01:05:18.818Z,96.82
2017-10-21T01:07:47.263Z,97.54
2017-10-21T01:10:16.606Z,98.14
2017-10-21T01:12:45.094Z,98.31
2017-10-21T01:15:13.578Z,98.19
2017-10-21T01:17:42.023Z,98.25
2017-10-21T01:20:11.252Z,98.20
2017-10-21T01:22:39.689Z,98.01
2017-10-21T01:25:08.923Z,97.68
2017-10-21T01:27:37.422Z,97.20
2017-10-21T01:30:05.996Z,97.50
2017-10-21T01:32:34.437Z,97.58
2017-10-21T01:35:03.649Z,97.66
2017-10-21T01:37:32.982Z,97.86
2017-10-21T01:40:01.420Z,97.77
2017-10-21T01:42:30.653Z,98.03
2017-10-21T01:44:59.097Z,98.21
2017-10-21T01:47:27.571Z,97.87
2017-10-21T01:49:56.013Z,97.73
2017-10-21T01:52:24.482Z,97.66
2017-10-21T01:54:52.976Z,97.50
2017-10-21T01:57:21.562Z,97.92
2017-10-21T01:59:50.018Z,98.15
2017-10-21T02:02:18.480Z,98.76
2017-10-21T02:04:47.730Z,99.04
2017-10-21T02:07:16.303Z,98.69
2017-10-21T02:09:44.742Z,99.08
2017-10-21T02:12:14.081Z,98.67
2017-10-21T02:14:42.521Z,98.87
2017-10-21T02:17:11.730Z,98.88
2017-10-21T02:19:40.957Z,98.48
2017-10-21T02:22:09.406Z,98.50
2017-10-21T02:24:38.643Z,98.48
2017-10-21T02:27:07.135Z,97.79
2017-10-21T02:29:35.695Z,98.04
2017-10-21T02:32:04.137Z,97.92
2017-10-21T02:34:32.610Z,98.05
2017-10-21T02:37:01.053Z,97.63
2017-10-21T02:39:29.513Z,97.85
2017-10-21T02:41:58.731Z,97.53
2017-10-21T02:44:27.217Z,97.43
2017-10-21T02:46:55.672Z,97.19
2017-10-21T02:49:25.011Z,97.56
2017-10-21T02:51:53.459Z,97.28
2017-10-21T02:54:22.795Z,96.91
2017-10-21T02:56:51.280Z,96.97
2017-10-21T02:59:19.741Z,97.39
2017-10-21T03:01:48.205Z,97.99
2017-10-21T03:04:17.413Z,97.72
2017-10-21T03:06:45.918Z,97.77
2017-10-21T03:09:14.370Z,97.41
2017-10-21T03:11:43.600Z,96.96
2017-10-21T03:14:12.046Z,96.82
2017-10-21T03:16:41.379Z,96.52
2017-10-21T03:19:09.867Z,96.62
2017-10-21T03:21:38.328Z,96.88
2017-10-21T03:24:06.774Z,96.58
2017-10-21T03:26:36.002Z,96.57
2017-10-21T03:29:04.451Z,96.44
2017-10-21T03:31:33.688Z,97.05
2017-10-21T03:34:02.130Z,96.81
2017-10-21T03:36:30.594Z,97.02
2017-10-21T03:38:59.045Z,97.14
2017-10-21T03:41:27.638Z,97.48
2017-10-21T03:43:56.087Z,97.52
2017-10-21T03:46:25.295Z,97.45
2017-10-21T03:48:53.781Z,97.39
2017-10-21T03:51:22.273Z,97.68
2017-10-21T03:53:50.732Z,97.62
2017-10-21T03:56:19.933Z,97.77
2017-10-21T03:58:49.165Z,97.90
2017-10-21T04:01:17.622Z,97.74
2017-10-21T04:03:46.094Z,97.68
2017-10-21T04:06:15.302Z,97.41
2017-10-21T04:08:43.807Z,97.60
2017-10-21T04:11:12.246Z,97.10
2017-10-21T04:13:41.483Z,97.55
2017-10-21T04:16:09.924Z,97.08
2017-10-21T04:18:39.271Z,97.24
2017-10-21T04:21:07.713Z,97.25
2017-10-21T04:23:36.957Z,97.20
2017-10-21T04:26:05.406Z,97.40
2017-10-21T04:28:33.851Z,97.45
2017-10-21T04:31:02.314Z,97.38
2017-10-21T04:33:30.778Z,97.13
2017-10-21T04:35:59.241Z,97.17
2017-10-21T04:38:28.134Z,97.20
2017-10-21T04:40:56.611Z,97.54
2017-10-21T04:43:25.111Z,97.53
2017-10-21T04:45:53.587Z,97.26
2017-10-21T04:48:22.034Z,97.43
2017-10-21T04:50:51.279Z,97.46
2017-10-21T04:53:19.731Z,97.22
2017-10-21T04:55:48.974Z,97.03
2017-10-21T04:58:17.419Z,97.02
2017-10-21T05:00:45.903Z,97.63
2017-10-21T05:03:14.342Z,96.92
2017-10-21T05:05:42.890Z,97.42
2017-10-21T05:08:11.329Z,97.33
2017-10-21T05:10:40.575Z,97.05
2017-10-21T05:13:09.046Z,96.55
2017-10-21T05:15:37.539Z,96.68
2017-10-21T05:18:06.012Z,96.13
2017-10-21T05:20:34.457Z,97.01
2017-10-21T05:23:03.691Z,96.68
2017-10-21T05:25:32.169Z,96.14
2017-10-21T05:28:00.633Z,96.94
2017-10-21T05:30:29.143Z,96.66
2017-10-21T05:32:57.619Z,96.55
2017-10-21T05:35:26.057Z,97.45
2017-10-21T05:37:55.398Z,97.55
2017-10-21T05:40:23.847Z,97.24
2017-10-21T05:42:53.087Z,95.41
2017-10-21T05:45:21.561Z,95.81
2017-10-21T05:47:50.028Z,95.78
2017-10-21T05:50:18.474Z,95.70
2017-10-21T05:52:46.933Z,95.88
2017-10-21T05:55:17.129Z,95.79
2017-10-21T05:57:45.595Z,95.54
2017-10-21T06:00:14.103Z,95.87
2017-10-21T06:02:42.547Z,95.05
2017-10-21T06:05:11.879Z,95.74
2017-10-21T06:07:40.325Z,96.01
2017-10-21T06:10:09.554Z,95.83
2017-10-21T06:12:37.998Z,95.72
2017-10-21T06:15:07.234Z,95.21
2017-10-21T06:17:39.725Z,95.26
2017-10-21T06:20:08.200Z,94.58
2017-10-21T06:22:36.645Z,94.65
2017-10-21T06:25:05.876Z,95.03
2017-10-21T06:27:34.313Z,93.60
2017-10-21T06:30:02.851Z,94.12
2017-10-21T06:32:31.289Z,94.56
2017-10-21T06:35:00.525Z,94.32
2017-10-21T06:37:28.975Z,94.24
2017-10-21T06:39:58.305Z,93.87
2017-10-21T06:42:26.750Z,93.54
2017-10-21T06:44:55.987Z,93.56
2017-10-21T06:47:24.443Z,93.35
2017-10-21T06:49:53.651Z,93.40
2017-10-21T06:52:22.158Z,93.21
2017-10-21T06:54:50.598Z,92.65
2017-10-21T06:57:19.933Z,92.95
2017-10-21T06:59:48.390Z,92.63
2017-10-21T07:02:17.622Z,92.41
2017-10-21T07:04:46.098Z,92.33
2017-10-21T07:07:14.574Z,92.08
2017-10-21T07:09:43.075Z,92.21
2017-10-21T07:12:11.545Z,92.79
2017-10-21T07:14:39.989Z,92.80
2017-10-21T07:17:09.217Z,92.56
2017-10-21T07:19:37.662Z,92.43
2017-10-21T07:22:06.903Z,92.64
2017-10-21T07:24:35.341Z,92.97
2017-10-21T07:27:04.695Z,92.38
2017-10-21T07:29:33.179Z,92.75
2017-10-21T07:32:01.654Z,92.16
2017-10-21T07:34:30.133Z,92.38
2017-10-21T07:36:58.627Z,92.34
2017-10-21T07:39:27.089Z,92.10
2017-10-21T07:41:55.573Z,92.04
2017-10-21T07:44:24.866Z,92.10
2017-10-21T07:46:53.301Z,92.51
2017-10-21T07:49:21.761Z,91.57
2017-10-21T07:51:50.234Z,91.96
2017-10-21T07:54:18.697Z,92.04
2017-10-21T07:56:47.137Z,91.49
2017-10-21T07:59:16.499Z,90.91
2017-10-21T08:01:44.974Z,90.65
2017-10-21T08:04:13.448Z,90.91
2017-10-21T08:06:41.894Z,90.88
2017-10-21T08:09:11.102Z,90.36
2017-10-21T08:11:40.336Z,89.84
2017-10-21T08:14:08.784Z,89.58
2017-10-21T08:16:38.014Z,89.29
2017-10-21T08:19:06.453Z,89.02
2017-10-21T08:21:35.690Z,89.29
2017-10-21T08:24:04.139Z,88.78
2017-10-21T08:26:33.374Z,88.40
2017-10-21T08:29:01.809Z,87.74
2017-10-21T08:31:30.359Z,87.59
2017-10-21T08:33:58.803Z,87.10
2017-10-21T08:36:27.265Z,87.31
2017-10-21T08:38:56.518Z,87.43
2017-10-21T08:41:25.142Z,88.01
2017-10-21T08:43:54.361Z,87.96
2017-10-21T08:46:23.596Z,88.36
2017-10-21T08:48:52.046Z,88.54
2017-10-21T08:51:21.278Z,86.96
2017-10-21T08:53:49.748Z,87.21
2017-10-21T08:56:18.243Z,87.07
2017-10-21T08:58:46.826Z,87.01
2017-10-21T09:01:15.269Z,86.67
2017-10-21T09:03:44.493Z,87.09
2017-10-21T09:06:12.930Z,86.56
2017-10-21T09:08:41.394Z,85.77
2017-10-21T09:11:09.844Z,86.51
2017-10-21T09:13:38.314Z,86.50
2017-10-21T09:16:06.766Z,86.12
2017-10-21T09:18:36.115Z,85.71
2017-10-21T09:21:04.556Z,85.87
2017-10-21T09:23:33.792Z,85.34
2017-10-21T09:26:02.238Z,84.63
2017-10-21T09:28:31.478Z,84.01
2017-10-21T09:30:59.926Z,84.27
2017-10-21T09:33:29.185Z,83.80
2017-10-21T09:35:57.640Z,84.18
2017-10-21T09:38:26.099Z,84.25
2017-10-21T09:40:54.565Z,83.27
2017-10-21T09:43:23.774Z,82.87
2017-10-21T09:45:52.250Z,82.20
2017-10-21T09:48:21.486Z,81.32
2017-10-21T09:50:49.946Z,80.02
2017-10-21T09:53:18.381Z,80.20
2017-10-21T09:55:46.846Z,79.61
2017-10-21T09:58:15.295Z,79.76
2017-10-21T10:00:43.752Z,80.34
2017-10-21T10:03:12.992Z,79.98
2017-10-21T10:05:41.465Z,79.94
2017-10-21T10:08:09.955Z,79.88
2017-10-21T10:10:38.423Z,79.83
2017-10-21T10:13:06.857Z,79.98
2017-10-21T10:15:35.405Z,79.08
2017-10-21T10:18:03.859Z,78.54
2017-10-21T10:20:32.365Z,79.08
2017-10-21T10:23:00.825Z,78.38
2017-10-21T10:25:29.270Z,78.18
2017-10-21T10:27:57.808Z,77.56
2017-10-21T10:30:26.390Z,76.66
2017-10-21T10:32:54.849Z,76.25
2017-10-21T10:35:24.068Z,76.36
2017-10-21T10:37:52.562Z,77.15
2017-10-21T10:40:21.002Z,76.77
2017-10-21T10:42:50.345Z,75.52
2017-10-21T10:45:18.786Z,75.44
2017-10-21T10:47:48.018Z,76.43
2017-10-21T10:50:16.472Z,76.25
2017-10-21T10:52:44.954Z,76.47
2017-10-21T10:55:14.164Z,76.02
2017-10-21T10:57:42.672Z,76.07
2017-10-21T11:00:11.254Z,75.65
2017-10-21T11:02:39.735Z,75.20
2017-10-21T11:05:08.203Z,76.27
2017-10-21T11:07:36.636Z,75.64
2017-10-21T11:10:05.183Z,74.44
2017-10-21T11:12:33.662Z,75.38
2017-10-21T11:15:02.242Z,74.03
2017-10-21T11:17:30.686Z,74.46
2017-10-21T11:20:00.021Z,74.27
2017-10-21T11:22:28.456Z,74.15
2017-10-21T11:24:56.925Z,73.30
2017-10-21T11:27:25.366Z,73.66
2017-10-21T11:29:53.837Z,72.69
2017-10-21T11:32:22.272Z,73.02
2017-10-21T11:34:50.749Z,73.67
2017-10-21T11:37:19.196Z,72.70
2017-10-21T11:39:47.641Z,72.36
2017-10-21T11:42:16.967Z,72.23
2017-10-21T11:44:45.404Z,71.90
2017-10-21T11:47:13.865Z,72.10
2017-10-21T11:49:42.330Z,71.85
2017-10-21T11:52:10.800Z,71.31
2017-10-21T11:54:39.286Z,71.48
2017-10-21T11:57:07.764Z,70.92
2017-10-21T11:59:36.198Z,70.63
2017-10-21T12:02:04.665Z,70.42
2017-10-21T12:04:33.125Z,70.90
2017-10-21T12:07:01.596Z,70.03
2017-10-21T12:09:30.083Z,70.68
2017-10-21T12:11:58.667Z,69.90
2017-10-21T12:14:27.105Z,70.00
2017-10-21T12:16:56.365Z,70.34
2017-10-21T12:19:24.812Z,70.65
2017-10-21T12:21:53.249Z,69.23
2017-10-21T12:24:22.473Z,69.44
2017-10-21T12:26:51.683Z,69.29
2017-10-21T12:29:20.181Z,69.61
2017-10-21T12:31:48.622Z,69.05
2017-10-21T12:34:17.974Z,69.58
2017-10-21T12:36:46.414Z,69.95
2017-10-21T12:39:15.642Z,69.67
2017-10-21T12:41:44.086Z,70.45
2017-10-21T12:44:13.416Z,69.72
2017-10-21T12:46:41.871Z,70.60
2017-10-21T12:49:11.106Z,70.41
2017-10-21T12:51:39.585Z,70.12
2017-10-21T12:54:08.045Z,70.37
2017-10-21T12:56:37.258Z,70.64
2017-10-21T12:59:05.738Z,69.92
2017-10-21T13:01:34.187Z,68.95
2017-10-21T13:04:02.634Z,68.68
2017-10-21T13:06:31.103Z,68.36
2017-10-21T13:08:59.586Z,68.60
2017-10-21T13:11:28.058Z,67.82
2017-10-21T13:13:56.506Z,66.59
2017-10-21T13:16:25.737Z,66.03
2017-10-21T13:18:54.234Z,65.54
2017-10-21T13:21:22.697Z,66.06
2017-10-21T13:23:51.138Z,66.96
2017-10-21T13:26:19.610Z,66.69
2017-10-21T13:28:48.049Z,66.58
2017-10-21T13:31:16.542Z,66.04
2017-10-21T13:33:44.984Z,66.87
2017-10-21T13:36:14.208Z,67.47
2017-10-21T13:38:42.660Z,67.86
2017-10-21T13:41:12.007Z,68.00
2017-10-21T13:43:40.475Z,67.93
2017-10-21T13:48:42.666Z,67.83
2017-10-21T13:51:11.115Z,67.76
2017-10-21T13:53:40.347Z,68.18
2017-10-21T13:56:08.795Z,68.48
2017-10-21T13:58:38.142Z,68.52
2017-10-21T14:01:06.608Z,69.12
2017-10-21T14:03:35.073Z,70.02
2017-10-21T14:06:03.586Z,70.09
2017-10-21T14:08:32.055Z,70.28
2017-10-21T14:11:00.499Z,71.19
2017-10-21T14:13:29.744Z,70.96
2017-10-21T14:15:58.192Z,71.28
2017-10-21T14:18:27.594Z,71.61
2017-10-21T14:20:56.801Z,71.58
2017-10-21T14:23:26.012Z,71.92
2017-10-21T14:25:54.479Z,71.53
2017-10-21T14:28:23.687Z,72.03
2017-10-21T14:30:52.145Z,71.57
2017-10-21T14:33:21.430Z,72.05
2017-10-21T14:35:50.674Z,71.55
2017-10-21T14:38:19.118Z,72.06
2017-10-21T14:40:47.591Z,71.53
2017-10-21T14:43:16.029Z,72.59
2017-10-21T14:45:44.520Z,72.23
2017-10-21T14:48:12.967Z,75.15
2017-10-21T14:50:42.200Z,72.50
2017-10-21T14:53:10.683Z,72.62
2017-10-21T14:55:39.883Z,73.33
2017-10-21T14:58:08.367Z,74.83
2017-10-21T15:00:36.828Z,73.13
2017-10-21T15:03:05.278Z,74.34
2017-10-21T15:05:35.321Z,74.38
2017-10-21T15:08:03.803Z,74.47
2017-10-21T15:10:32.259Z,74.48
2017-10-21T15:13:01.601Z,74.57
2017-10-21T15:15:30.042Z,76.63
2017-10-21T15:17:59.317Z,76.90
2017-10-21T15:20:27.880Z,77.37
2017-10-21T15:22:56.341Z,76.51
2017-10-21T15:25:24.845Z,76.49
2017-10-21T15:27:53.311Z,76.53
2017-10-21T15:30:21.749Z,77.48
2017-10-21T15:32:50.234Z,77.15
2017-10-21T15:35:19.490Z,77.46
2017-10-21T15:37:47.939Z,77.41
2017-10-21T15:40:16.404Z,77.55
2017-10-21T15:42:45.612Z,77.81
2017-10-21T15:45:14.960Z,78.48
2017-10-21T15:47:43.407Z,78.54
2017-10-21T15:50:11.922Z,78.58
2017-10-21T15:52:40.362Z,78.85
2017-10-21T15:55:09.594Z,79.49
2017-10-21T15:57:38.047Z,79.50
2017-10-21T16:00:06.517Z,80.15
2017-10-21T16:02:35.721Z,80.34
2017-10-21T16:05:04.975Z,80.18
2017-10-21T16:07:33.413Z,80.02
2017-10-21T16:10:01.862Z,80.43
2017-10-21T16:12:30.360Z,80.67
2017-10-21T16:14:59.592Z,80.88
2017-10-21T16:17:28.059Z,81.10
2017-10-21T16:19:56.578Z,81.04
2017-10-21T16:22:25.055Z,81.48
2017-10-21T16:24:53.638Z,81.53
2017-10-21T16:27:22.097Z,81.71
2017-10-21T16:29:50.598Z,81.42
2017-10-21T16:32:19.057Z,81.85
2017-10-21T16:34:47.565Z,81.89
2017-10-21T16:37:16.139Z,82.04
2017-10-21T16:39:44.585Z,82.16
2017-10-21T16:42:13.789Z,82.00
2017-10-21T16:44:43.130Z,81.94
2017-10-21T16:47:11.568Z,81.97
2017-10-21T16:49:40.807Z,81.73
2017-10-21T16:52:09.249Z,81.88
2017-10-21T16:54:38.484Z,81.85
2017-10-21T16:57:06.970Z,82.24
2017-10-21T16:59:35.554Z,82.09
2017-10-21T17:02:04.006Z,82.32
2017-10-21T17:04:32.482Z,82.23
2017-10-21T17:07:01.695Z,82.02
2017-10-21T17:09:30.158Z,82.47
2017-10-21T17:11:59.366Z,82.01
2017-10-21T17:14:28.700Z,82.37
2017-10-21T17:16:57.182Z,81.98
2017-10-21T17:19:25.621Z,82.34
2017-10-21T17:21:54.849Z,82.21
2017-10-21T17:24:23.294Z,82.14
2017-10-21T17:26:52.651Z,82.15
2017-10-21T17:29:21.122Z,82.20
2017-10-21T17:31:49.610Z,82.78
2017-10-21T17:34:18.062Z,82.42
2017-10-21T17:36:46.540Z,82.42
2017-10-21T17:39:15.749Z,82.64
2017-10-21T17:41:44.213Z,82.77
2017-10-21T17:44:13.429Z,83.09
2017-10-21T17:46:41.894Z,83.10
2017-10-21T17:49:11.106Z,83.64
2017-10-21T17:51:39.575Z,83.28
2017-10-21T17:54:08.815Z,83.31
2017-10-21T17:56:37.289Z,83.34
2017-10-21T17:59:05.742Z,83.74
2017-10-21T18:01:34.975Z,83.67
2017-10-21T18:04:03.463Z,83.63
2017-10-21T18:06:32.269Z,83.92
2017-10-21T18:09:00.733Z,83.95
2017-10-21T18:11:29.179Z,83.74
2017-10-21T18:13:58.407Z,83.82
2017-10-21T18:16:26.853Z,84.08
2017-10-21T18:18:56.077Z,84.18
2017-10-21T18:21:24.645Z,83.99
2017-10-21T18:23:53.934Z,84.04
2017-10-21T18:26:23.178Z,84.11
2017-10-21T18:28:51.753Z,84.18
2017-10-21T18:31:20.199Z,84.40
2017-10-21T18:33:49.441Z,85.01
2017-10-21T18:36:17.894Z,84.74
2017-10-21T18:38:46.407Z,85.07
2017-10-21T18:41:14.851Z,85.62
2017-10-21T18:43:44.118Z,85.79
2017-10-21T18:46:12.848Z,85.69
2017-10-21T18:48:41.573Z,85.63
2017-10-21T18:51:10.026Z,85.72
2017-10-21T18:53:38.513Z,85.80
2017-10-21T18:56:07.006Z,86.27
2017-10-21T18:58:35.488Z,86.36
2017-10-21T19:01:03.953Z,86.09
2017-10-21T19:03:32.390Z,86.28
2017-10-21T19:06:00.906Z,85.93
2017-10-21T19:08:30.140Z,86.84
2017-10-21T19:10:58.710Z,86.92
2017-10-21T19:13:27.203Z,86.37
2017-10-21T19:15:55.737Z,86.46
2017-10-21T19:18:24.952Z,86.07
2017-10-21T19:20:54.199Z,86.76
2017-10-21T19:23:22.733Z,86.36
2017-10-21T19:25:52.061Z,86.34
2017-10-21T19:28:20.548Z,86.55
2017-10-21T19:30:49.139Z,86.65
2017-10-21T19:33:17.601Z,86.57
2017-10-21T19:35:46.297Z,86.84
2017-10-21T19:38:14.751Z,87.10
2017-10-21T19:40:43.193Z,86.88
2017-10-21T19:43:11.747Z,86.81
2017-10-21T19:45:40.195Z,87.07
2017-10-21T19:48:09.521Z,87.23
2017-10-21T19:50:38.087Z,87.34
2017-10-21T19:53:07.610Z,87.22
2017-10-21T19:55:36.115Z,87.58
2017-10-21T19:58:04.597Z,86.88
2017-10-21T20:00:33.075Z,87.01
2017-10-21T20:03:01.581Z,86.85
2017-10-21T20:05:30.026Z,86.71
2017-10-21T20:07:58.492Z,86.82
2017-10-21T20:10:26.950Z,87.21
2017-10-21T20:12:56.377Z,86.74
2017-10-21T20:15:24.827Z,86.84
2017-10-21T20:17:53.368Z,86.63
2017-10-21T20:20:22.274Z,86.40
2017-10-21T20:22:50.743Z,86.33
2017-10-21T20:25:19.209Z,86.46
2017-10-21T20:27:47.649Z,87.12
2017-10-21T20:30:16.190Z,86.76
2017-10-21T20:32:44.637Z,86.59
2017-10-21T20:35:13.966Z,86.58
2017-10-21T20:37:42.410Z,86.86
2017-10-21T20:40:11.637Z,87.34
2017-10-21T20:42:40.069Z,87.44
2017-10-21T20:45:08.533Z,87.82
2017-10-21T20:47:36.977Z,87.53
2017-10-21T20:50:05.444Z,87.70
2017-10-21T20:52:34.645Z,87.93
2017-10-21T20:55:03.871Z,87.87
2017-10-21T20:57:32.317Z,88.06
2017-10-21T21:00:01.551Z,87.71
2017-10-21T21:02:30.007Z,87.59
2017-10-21T21:04:58.498Z,87.61
2017-10-21T21:07:27.003Z,87.47
2017-10-21T21:09:55.531Z,87.92
2017-10-21T21:12:23.998Z,88.34
2017-10-21T21:14:52.546Z,88.66
2017-10-21T21:17:21.028Z,88.82
2017-10-21T21:19:49.473Z,88.98
2017-10-21T21:22:18.701Z,88.99
2017-10-21T21:24:47.190Z,89.04
2017-10-21T21:27:15.658Z,89.43
2017-10-21T21:29:44.093Z,89.68
2017-10-21T21:32:12.549Z,89.45
2017-10-21T21:34:40.998Z,89.28
2017-10-21T21:37:09.475Z,89.24
2017-10-21T21:39:37.927Z,89.08
2017-10-21T21:42:06.467Z,89.05
2017-10-21T21:44:34.945Z,88.78
2017-10-21T21:47:03.390Z,88.55
2017-10-21T21:49:32.629Z,88.64
2017-10-21T21:52:01.069Z,88.85
2017-10-21T21:54:30.293Z,88.94
2017-10-21T21:56:58.729Z,88.93
2017-10-21T21:59:27.195Z,88.83
2017-10-21T22:01:55.642Z,88.94
2017-10-21T22:04:24.114Z,88.76
2017-10-21T22:06:52.561Z,88.85
2017-10-21T22:09:21.033Z,88.76
2017-10-21T22:11:49.465Z,88.41
2017-10-21T22:14:17.958Z,88.92
2017-10-21T22:16:46.392Z,88.61
2017-10-21T22:19:14.853Z,88.94
2017-10-21T22:21:43.289Z,88.64
2017-10-21T22:24:11.755Z,88.41
2017-10-21T22:26:40.982Z,88.24
2017-10-21T22:29:09.418Z,88.36
2017-10-21T22:31:38.655Z,88.33
2017-10-21T22:34:07.150Z,87.98
2017-10-21T22:36:35.618Z,88.19
2017-10-21T22:39:04.062Z,88.11
2017-10-21T22:41:33.309Z,88.48
2017-10-21T22:44:01.758Z,88.36
2017-10-21T22:46:31.091Z,88.30
2017-10-21T22:48:59.538Z,88.38
2017-10-21T22:51:28.762Z,88.04
2017-10-21T22:53:57.201Z,88.10
2017-10-21T22:56:25.689Z,87.98
2017-10-21T22:58:54.901Z,88.04
2017-10-21T23:01:24.238Z,88.06
2017-10-21T23:03:52.725Z,87.73
2017-10-21T23:06:21.211Z,87.78
2017-10-21T23:08:49.679Z,88.17
2017-10-21T23:11:18.129Z,88.24
2017-10-21T23:13:47.363Z,88.13
2017-10-21T23:16:16.357Z,88.07
2017-10-21T23:18:44.834Z,88.49
2017-10-21T23:21:13.277Z,88.28
2017-10-21T23:23:42.511Z,88.30
2017-10-21T23:26:10.965Z,88.35
2017-10-21T23:28:40.310Z,88.23
2017-10-21T23:31:08.791Z,88.77
2017-10-21T23:33:37.248Z,90.17
2017-10-21T23:36:05.682Z,90.88
2017-10-21T23:38:34.233Z,91.58
2017-10-21T23:41:02.684Z,92.00
2017-10-21T23:43:31.946Z,91.47
2017-10-21T23:46:00.390Z,91.85
2017-10-21T23:48:28.829Z,92.01
2017-10-21T23:50:57.363Z,91.42
2017-10-21T23:53:26.771Z,91.95
2017-10-21T23:55:55.347Z,91.93
2017-10-21T23:58:23.789Z,91.63
